sensor_id;sensor_type;location;lat;lon;timestamp;P1;durP1;ratioP1;P2;durP2;ratioP2
62633;SDS011;48704;50.534;6.442;2022-12-18T00:01:24;6.05;;;2.13;;
62633;SDS011;48704;50.534;6.442;2022-12-18T00:03:52;4.85;;;2.40;;
62633;SDS011;48704;50.534;6.442;2022-12-18T00:06:19;5.53;;;2.35;;
62633;SDS011;48704;50.534;6.442;2022-12-18T00:08:46;4.35;;;2.30;;
62633;SDS011;48704;50.534;6.442;2022-12-18T00:11:13;7.15;;;2.40;;
62633;SDS011;48704;50.534;6.442;2022-12-18T00:13:41;5.18;;;2.08;;
62633;SDS011;48704;50.534;6.442;2022-12-18T00:16:08;6.10;;;2.03;;
62633;SDS011;48704;50.534;6.442;2022-12-18T00:18:36;7.53;;;2.50;;
62633;SDS011;48704;50.534;6.442;2022-12-18T00:21:02;5.95;;;2.45;;
62633;SDS011;48704;50.534;6.442;2022-12-18T00:23:30;5.93;;;2.40;;
62633;SDS011;48704;50.534;6.442;2022-12-18T00:26:04;3.50;;;2.00;;
62633;SDS011;48704;50.534;6.442;2022-12-18T00:28:31;5.97;;;2.53;;
62633;SDS011;48704;50.534;6.442;2022-12-18T00:31:00;6.75;;;2.50;;
62633;SDS011;48704;50.534;6.442;2022-12-18T00:33:29;7.38;;;2.63;;
62633;SDS011;48704;50.534;6.442;2022-12-18T00:36:00;6.57;;;2.45;;
62633;SDS011;48704;50.534;6.442;2022-12-18T00:38:26;3.83;;;2.13;;
62633;SDS011;48704;50.534;6.442;2022-12-18T00:40:51;4.43;;;2.15;;
62633;SDS011;48704;50.534;6.442;2022-12-18T00:43:17;4.63;;;1.63;;
62633;SDS011;48704;50.534;6.442;2022-12-18T00:45:42;6.47;;;2.72;;
62633;SDS011;48704;50.534;6.442;2022-12-18T00:48:07;4.18;;;2.10;;
62633;SDS011;48704;50.534;6.442;2022-12-18T00:50:33;6.85;;;2.53;;
62633;SDS011;48704;50.534;6.442;2022-12-18T00:52:58;4.80;;;2.47;;
62633;SDS011;48704;50.534;6.442;2022-12-18T00:55:23;4.10;;;2.25;;
62633;SDS011;48704;50.534;6.442;2022-12-18T00:57:50;4.75;;;2.45;;
62633;SDS011;48704;50.534;6.442;2022-12-18T01:00:17;5.15;;;2.47;;
62633;SDS011;48704;50.534;6.442;2022-12-18T01:02:42;8.02;;;3.00;;
62633;SDS011;48704;50.534;6.442;2022-12-18T01:05:09;6.53;;;2.45;;
62633;SDS011;48704;50.534;6.442;2022-12-18T01:07:36;6.85;;;2.42;;
62633;SDS011;48704;50.534;6.442;2022-12-18T01:10:02;5.60;;;2.55;;
62633;SDS011;48704;50.534;6.442;2022-12-18T01:12:29;6.30;;;2.53;;
62633;SDS011;48704;50.534;6.442;2022-12-18T01:14:54;8.77;;;2.67;;
62633;SDS011;48704;50.534;6.442;2022-12-18T01:17:20;7.47;;;2.60;;
62633;SDS011;48704;50.534;6.442;2022-12-18T01:19:45;4.45;;;2.17;;
62633;SDS011;48704;50.534;6.442;2022-12-18T01:22:10;5.72;;;2.10;;
62633;SDS011;48704;50.534;6.442;2022-12-18T01:24:35;4.07;;;1.80;;
62633;SDS011;48704;50.534;6.442;2022-12-18T01:27:01;6.30;;;2.20;;
62633;SDS011;48704;50.534;6.442;2022-12-18T01:29:26;5.82;;;2.00;;
62633;SDS011;48704;50.534;6.442;2022-12-18T01:31:54;5.07;;;1.63;;
62633;SDS011;48704;50.534;6.442;2022-12-18T01:34:19;4.60;;;1.92;;
62633;SDS011;48704;50.534;6.442;2022-12-18T01:36:45;3.60;;;1.88;;
62633;SDS011;48704;50.534;6.442;2022-12-18T01:39:11;4.55;;;1.98;;
62633;SDS011;48704;50.534;6.442;2022-12-18T01:41:38;4.30;;;2.08;;
62633;SDS011;48704;50.534;6.442;2022-12-18T01:49:53;4.75;;;2.05;;
62633;SDS011;48704;50.534;6.442;2022-12-18T01:52:21;4.45;;;1.88;;
62633;SDS011;48704;50.534;6.442;2022-12-18T01:54:50;5.22;;;1.95;;
62633;SDS011;48704;50.534;6.442;2022-12-18T01:57:17;7.40;;;2.58;;
62633;SDS011;48704;50.534;6.442;2022-12-18T01:59:42;5.55;;;2.55;;
62633;SDS011;48704;50.534;6.442;2022-12-18T02:02:11;7.45;;;2.53;;
62633;SDS011;48704;50.534;6.442;2022-12-18T02:04:37;5.35;;;2.42;;
62633;SDS011;48704;50.534;6.442;2022-12-18T02:07:07;7.03;;;2.72;;
62633;SDS011;48704;50.534;6.442;2022-12-18T02:09:45;5.72;;;2.65;;
62633;SDS011;48704;50.534;6.442;2022-12-18T02:14:56;6.05;;;2.78;;
62633;SDS011;48704;50.534;6.442;2022-12-18T02:23:01;7.28;;;2.55;;
62633;SDS011;48704;50.534;6.442;2022-12-18T02:28:11;7.50;;;2.88;;
62633;SDS011;48704;50.534;6.442;2022-12-18T02:30:40;6.47;;;2.53;;
62633;SDS011;48704;50.534;6.442;2022-12-18T02:33:07;6.35;;;2.65;;
62633;SDS011;48704;50.534;6.442;2022-12-18T02:35:35;9.73;;;3.20;;
62633;SDS011;48704;50.534;6.442;2022-12-18T02:38:03;6.75;;;2.72;;
62633;SDS011;48704;50.534;6.442;2022-12-18T02:40:29;8.57;;;3.15;;
62633;SDS011;48704;50.534;6.442;2022-12-18T02:42:55;8.73;;;3.50;;
62633;SDS011;48704;50.534;6.442;2022-12-18T02:45:26;4.20;;;2.20;;
62633;SDS011;48704;50.534;6.442;2022-12-18T02:47:52;7.43;;;2.55;;
62633;SDS011;48704;50.534;6.442;2022-12-18T02:50:22;7.57;;;3.03;;
62633;SDS011;48704;50.534;6.442;2022-12-18T02:55:52;8.45;;;3.25;;
62633;SDS011;48704;50.534;6.442;2022-12-18T02:58:20;5.15;;;2.42;;
62633;SDS011;48704;50.534;6.442;2022-12-18T03:01:02;9.35;;;3.08;;
62633;SDS011;48704;50.534;6.442;2022-12-18T03:06:24;7.45;;;3.10;;
62633;SDS011;48704;50.534;6.442;2022-12-18T03:09:03;7.43;;;3.10;;
62633;SDS011;48704;50.534;6.442;2022-12-18T03:11:33;9.38;;;3.53;;
62633;SDS011;48704;50.534;6.442;2022-12-18T03:14:20;6.10;;;2.80;;
62633;SDS011;48704;50.534;6.442;2022-12-18T03:16:49;9.75;;;3.05;;
62633;SDS011;48704;50.534;6.442;2022-12-18T03:19:18;8.50;;;3.00;;
62633;SDS011;48704;50.534;6.442;2022-12-18T03:21:49;8.35;;;2.90;;
62633;SDS011;48704;50.534;6.442;2022-12-18T03:24:17;6.38;;;2.60;;
62633;SDS011;48704;50.534;6.442;2022-12-18T03:26:44;8.50;;;2.92;;
62633;SDS011;48704;50.534;6.442;2022-12-18T03:29:12;7.65;;;3.20;;
62633;SDS011;48704;50.534;6.442;2022-12-18T03:31:45;6.32;;;3.08;;
62633;SDS011;48704;50.534;6.442;2022-12-18T03:34:17;7.00;;;2.90;;
62633;SDS011;48704;50.534;6.442;2022-12-18T03:36:48;7.32;;;3.17;;
62633;SDS011;48704;50.534;6.442;2022-12-18T03:39:14;6.18;;;2.28;;
62633;SDS011;48704;50.534;6.442;2022-12-18T03:41:43;8.30;;;3.20;;
62633;SDS011;48704;50.534;6.442;2022-12-18T03:44:15;7.55;;;2.78;;
62633;SDS011;48704;50.534;6.442;2022-12-18T03:52:25;6.03;;;2.70;;
62633;SDS011;48704;50.534;6.442;2022-12-18T03:54:55;7.38;;;3.42;;
62633;SDS011;48704;50.534;6.442;2022-12-18T03:57:24;7.25;;;2.90;;
62633;SDS011;48704;50.534;6.442;2022-12-18T03:59:55;6.95;;;3.13;;
62633;SDS011;48704;50.534;6.442;2022-12-18T04:02:22;10.07;;;3.45;;
62633;SDS011;48704;50.534;6.442;2022-12-18T04:04:50;7.07;;;2.88;;
62633;SDS011;48704;50.534;6.442;2022-12-18T04:07:18;6.30;;;2.35;;
62633;SDS011;48704;50.534;6.442;2022-12-18T04:09:45;8.00;;;3.28;;
62633;SDS011;48704;50.534;6.442;2022-12-18T04:12:13;8.05;;;2.80;;
62633;SDS011;48704;50.534;6.442;2022-12-18T04:14:38;8.45;;;3.28;;
62633;SDS011;48704;50.534;6.442;2022-12-18T04:17:03;6.32;;;2.33;;
62633;SDS011;48704;50.534;6.442;2022-12-18T04:19:29;6.22;;;2.95;;
62633;SDS011;48704;50.534;6.442;2022-12-18T04:21:54;7.88;;;3.45;;
62633;SDS011;48704;50.534;6.442;2022-12-18T04:24:19;9.23;;;3.42;;
62633;SDS011;48704;50.534;6.442;2022-12-18T04:26:45;7.13;;;2.55;;
62633;SDS011;48704;50.534;6.442;2022-12-18T04:29:10;7.88;;;3.10;;
62633;SDS011;48704;50.534;6.442;2022-12-18T04:31:36;6.95;;;2.63;;
62633;SDS011;48704;50.534;6.442;2022-12-18T04:34:01;7.05;;;2.97;;
62633;SDS011;48704;50.534;6.442;2022-12-18T04:36:27;6.28;;;3.42;;
62633;SDS011;48704;50.534;6.442;2022-12-18T04:38:52;8.95;;;3.05;;
62633;SDS011;48704;50.534;6.442;2022-12-18T04:41:17;5.57;;;3.10;;
62633;SDS011;48704;50.534;6.442;2022-12-18T04:43:43;4.28;;;1.98;;
62633;SDS011;48704;50.534;6.442;2022-12-18T04:46:08;6.78;;;2.55;;
62633;SDS011;48704;50.534;6.442;2022-12-18T04:48:34;5.70;;;2.45;;
62633;SDS011;48704;50.534;6.442;2022-12-18T04:51:00;7.80;;;2.72;;
62633;SDS011;48704;50.534;6.442;2022-12-18T04:53:26;8.55;;;3.25;;
62633;SDS011;48704;50.534;6.442;2022-12-18T04:56:01;8.18;;;3.03;;
62633;SDS011;48704;50.534;6.442;2022-12-18T04:58:31;5.97;;;2.60;;
62633;SDS011;48704;50.534;6.442;2022-12-18T05:00:56;7.10;;;2.78;;
62633;SDS011;48704;50.534;6.442;2022-12-18T05:03:22;9.40;;;3.20;;
62633;SDS011;48704;50.534;6.442;2022-12-18T05:05:50;6.05;;;2.70;;
62633;SDS011;48704;50.534;6.442;2022-12-18T05:08:16;3.90;;;2.60;;
62633;SDS011;48704;50.534;6.442;2022-12-18T05:10:42;7.13;;;3.30;;
62633;SDS011;48704;50.534;6.442;2022-12-18T05:13:08;7.93;;;2.47;;
62633;SDS011;48704;50.534;6.442;2022-12-18T05:15:33;8.95;;;3.00;;
62633;SDS011;48704;50.534;6.442;2022-12-18T05:17:59;6.75;;;3.03;;
62633;SDS011;48704;50.534;6.442;2022-12-18T05:20:25;8.98;;;3.10;;
62633;SDS011;48704;50.534;6.442;2022-12-18T05:22:51;9.05;;;3.15;;
62633;SDS011;48704;50.534;6.442;2022-12-18T05:25:18;6.68;;;2.75;;
62633;SDS011;48704;50.534;6.442;2022-12-18T05:27:44;9.27;;;2.45;;
62633;SDS011;48704;50.534;6.442;2022-12-18T05:30:10;5.90;;;2.80;;
62633;SDS011;48704;50.534;6.442;2022-12-18T05:32:36;8.50;;;2.63;;
62633;SDS011;48704;50.534;6.442;2022-12-18T05:35:01;8.10;;;3.63;;
62633;SDS011;48704;50.534;6.442;2022-12-18T05:37:27;5.38;;;3.22;;
62633;SDS011;48704;50.534;6.442;2022-12-18T05:39:52;5.95;;;2.55;;
62633;SDS011;48704;50.534;6.442;2022-12-18T05:42:17;9.65;;;3.15;;
62633;SDS011;48704;50.534;6.442;2022-12-18T05:44:43;6.90;;;3.22;;
62633;SDS011;48704;50.534;6.442;2022-12-18T05:47:09;8.77;;;3.42;;
62633;SDS011;48704;50.534;6.442;2022-12-18T05:49:34;8.75;;;3.28;;
62633;SDS011;48704;50.534;6.442;2022-12-18T05:51:59;5.43;;;3.25;;
62633;SDS011;48704;50.534;6.442;2022-12-18T05:54:26;9.10;;;3.90;;
62633;SDS011;48704;50.534;6.442;2022-12-18T05:56:52;9.30;;;3.83;;
62633;SDS011;48704;50.534;6.442;2022-12-18T05:59:18;6.22;;;3.15;;
62633;SDS011;48704;50.534;6.442;2022-12-18T06:01:44;5.45;;;2.65;;
62633;SDS011;48704;50.534;6.442;2022-12-18T06:04:09;8.02;;;3.67;;
62633;SDS011;48704;50.534;6.442;2022-12-18T06:06:34;6.18;;;2.28;;
62633;SDS011;48704;50.534;6.442;2022-12-18T06:09:00;7.07;;;3.13;;
62633;SDS011;48704;50.534;6.442;2022-12-18T06:11:26;8.98;;;3.42;;
62633;SDS011;48704;50.534;6.442;2022-12-18T06:13:52;11.70;;;4.25;;
62633;SDS011;48704;50.534;6.442;2022-12-18T06:16:19;7.90;;;2.80;;
62633;SDS011;48704;50.534;6.442;2022-12-18T06:18:44;7.55;;;3.63;;
62633;SDS011;48704;50.534;6.442;2022-12-18T06:21:11;9.95;;;4.10;;
62633;SDS011;48704;50.534;6.442;2022-12-18T06:23:36;8.05;;;3.33;;
62633;SDS011;48704;50.534;6.442;2022-12-18T06:26:03;10.02;;;3.47;;
62633;SDS011;48704;50.534;6.442;2022-12-18T06:28:32;8.35;;;3.83;;
62633;SDS011;48704;50.534;6.442;2022-12-18T06:30:57;8.85;;;3.25;;
62633;SDS011;48704;50.534;6.442;2022-12-18T06:33:25;7.95;;;2.97;;
62633;SDS011;48704;50.534;6.442;2022-12-18T06:35:51;8.27;;;3.10;;
62633;SDS011;48704;50.534;6.442;2022-12-18T06:38:17;6.70;;;3.35;;
62633;SDS011;48704;50.534;6.442;2022-12-18T06:40:42;6.35;;;3.10;;
62633;SDS011;48704;50.534;6.442;2022-12-18T06:43:07;9.75;;;3.60;;
62633;SDS011;48704;50.534;6.442;2022-12-18T06:45:33;8.30;;;3.90;;
62633;SDS011;48704;50.534;6.442;2022-12-18T06:47:58;9.48;;;3.95;;
62633;SDS011;48704;50.534;6.442;2022-12-18T06:50:23;10.70;;;4.05;;
62633;SDS011;48704;50.534;6.442;2022-12-18T06:52:49;10.23;;;4.18;;
62633;SDS011;48704;50.534;6.442;2022-12-18T06:55:14;8.35;;;3.58;;
62633;SDS011;48704;50.534;6.442;2022-12-18T06:57:39;8.27;;;3.70;;
62633;SDS011;48704;50.534;6.442;2022-12-18T07:00:06;8.57;;;3.33;;
62633;SDS011;48704;50.534;6.442;2022-12-18T07:02:32;8.75;;;4.40;;
62633;SDS011;48704;50.534;6.442;2022-12-18T07:04:57;9.82;;;4.28;;
62633;SDS011;48704;50.534;6.442;2022-12-18T07:07:23;11.50;;;3.50;;
62633;SDS011;48704;50.534;6.442;2022-12-18T07:09:51;12.13;;;4.20;;
62633;SDS011;48704;50.534;6.442;2022-12-18T07:12:17;8.23;;;3.70;;
62633;SDS011;48704;50.534;6.442;2022-12-18T07:14:42;7.25;;;4.25;;
62633;SDS011;48704;50.534;6.442;2022-12-18T07:17:08;9.88;;;3.78;;
62633;SDS011;48704;50.534;6.442;2022-12-18T07:19:33;9.98;;;4.22;;
62633;SDS011;48704;50.534;6.442;2022-12-18T07:21:59;10.93;;;4.80;;
62633;SDS011;48704;50.534;6.442;2022-12-18T07:24:25;6.72;;;3.15;;
62633;SDS011;48704;50.534;6.442;2022-12-18T07:26:50;7.65;;;3.85;;
62633;SDS011;48704;50.534;6.442;2022-12-18T07:29:16;7.47;;;3.08;;
62633;SDS011;48704;50.534;6.442;2022-12-18T07:31:41;7.22;;;2.58;;
62633;SDS011;48704;50.534;6.442;2022-12-18T07:34:09;9.20;;;3.40;;
62633;SDS011;48704;50.534;6.442;2022-12-18T07:36:38;5.90;;;2.55;;
62633;SDS011;48704;50.534;6.442;2022-12-18T07:39:04;6.10;;;3.00;;
62633;SDS011;48704;50.534;6.442;2022-12-18T07:41:30;7.97;;;3.03;;
62633;SDS011;48704;50.534;6.442;2022-12-18T07:43:56;6.07;;;2.92;;
62633;SDS011;48704;50.534;6.442;2022-12-18T07:46:21;10.00;;;3.45;;
62633;SDS011;48704;50.534;6.442;2022-12-18T07:48:46;10.18;;;3.65;;
62633;SDS011;48704;50.534;6.442;2022-12-18T07:51:12;7.82;;;3.35;;
62633;SDS011;48704;50.534;6.442;2022-12-18T07:53:37;9.02;;;3.55;;
62633;SDS011;48704;50.534;6.442;2022-12-18T07:56:04;10.32;;;3.40;;
62633;SDS011;48704;50.534;6.442;2022-12-18T07:58:32;8.05;;;3.72;;
62633;SDS011;48704;50.534;6.442;2022-12-18T08:01:08;12.27;;;3.88;;
62633;SDS011;48704;50.534;6.442;2022-12-18T08:03:36;10.32;;;3.20;;
62633;SDS011;48704;50.534;6.442;2022-12-18T08:06:03;10.25;;;4.10;;
62633;SDS011;48704;50.534;6.442;2022-12-18T08:08:30;9.15;;;2.92;;
62633;SDS011;48704;50.534;6.442;2022-12-18T08:10:56;8.73;;;3.33;;
62633;SDS011;48704;50.534;6.442;2022-12-18T08:13:22;12.02;;;3.63;;
62633;SDS011;48704;50.534;6.442;2022-12-18T08:16:00;9.10;;;3.75;;
62633;SDS011;48704;50.534;6.442;2022-12-18T08:18:28;9.60;;;3.88;;
62633;SDS011;48704;50.534;6.442;2022-12-18T08:20:54;10.48;;;4.20;;
62633;SDS011;48704;50.534;6.442;2022-12-18T08:23:21;10.65;;;3.80;;
62633;SDS011;48704;50.534;6.442;2022-12-18T08:25:47;10.60;;;4.07;;
62633;SDS011;48704;50.534;6.442;2022-12-18T08:28:12;10.18;;;4.00;;
62633;SDS011;48704;50.534;6.442;2022-12-18T08:30:38;8.98;;;4.10;;
62633;SDS011;48704;50.534;6.442;2022-12-18T08:33:03;6.10;;;3.30;;
62633;SDS011;48704;50.534;6.442;2022-12-18T08:35:29;8.88;;;3.05;;
62633;SDS011;48704;50.534;6.442;2022-12-18T08:37:55;8.48;;;3.80;;
62633;SDS011;48704;50.534;6.442;2022-12-18T08:40:20;8.50;;;3.30;;
62633;SDS011;48704;50.534;6.442;2022-12-18T08:42:45;8.65;;;3.75;;
62633;SDS011;48704;50.534;6.442;2022-12-18T08:45:29;10.40;;;4.10;;
62633;SDS011;48704;50.534;6.442;2022-12-18T08:47:55;7.20;;;3.05;;
62633;SDS011;48704;50.534;6.442;2022-12-18T08:50:20;9.32;;;3.72;;
62633;SDS011;48704;50.534;6.442;2022-12-18T08:52:45;10.07;;;3.53;;
62633;SDS011;48704;50.534;6.442;2022-12-18T08:55:10;13.90;;;4.30;;
62633;SDS011;48704;50.534;6.442;2022-12-18T08:57:36;8.27;;;3.55;;
62633;SDS011;48704;50.534;6.442;2022-12-18T09:00:01;9.63;;;3.38;;
62633;SDS011;48704;50.534;6.442;2022-12-18T09:02:28;8.98;;;4.13;;
62633;SDS011;48704;50.534;6.442;2022-12-18T09:04:53;9.77;;;4.32;;
62633;SDS011;48704;50.534;6.442;2022-12-18T09:07:19;8.93;;;3.40;;
62633;SDS011;48704;50.534;6.442;2022-12-18T09:09:44;9.65;;;3.85;;
62633;SDS011;48704;50.534;6.442;2022-12-18T09:12:09;8.30;;;3.85;;
62633;SDS011;48704;50.534;6.442;2022-12-18T09:14:35;8.95;;;4.18;;
62633;SDS011;48704;50.534;6.442;2022-12-18T09:17:00;7.25;;;3.58;;
62633;SDS011;48704;50.534;6.442;2022-12-18T09:19:26;7.50;;;3.40;;
62633;SDS011;48704;50.534;6.442;2022-12-18T09:21:51;7.72;;;3.33;;
62633;SDS011;48704;50.534;6.442;2022-12-18T09:24:16;9.82;;;4.00;;
62633;SDS011;48704;50.534;6.442;2022-12-18T09:26:42;9.35;;;3.10;;
62633;SDS011;48704;50.534;6.442;2022-12-18T09:29:07;10.32;;;3.72;;
62633;SDS011;48704;50.534;6.442;2022-12-18T09:31:34;11.13;;;4.15;;
62633;SDS011;48704;50.534;6.442;2022-12-18T09:34:00;9.07;;;3.55;;
62633;SDS011;48704;50.534;6.442;2022-12-18T09:36:25;7.93;;;3.70;;
62633;SDS011;48704;50.534;6.442;2022-12-18T09:38:50;10.57;;;3.53;;
62633;SDS011;48704;50.534;6.442;2022-12-18T09:44:01;10.25;;;3.83;;
62633;SDS011;48704;50.534;6.442;2022-12-18T09:46:32;10.88;;;4.07;;
62633;SDS011;48704;50.534;6.442;2022-12-18T09:49:02;9.15;;;4.30;;
62633;SDS011;48704;50.534;6.442;2022-12-18T09:51:35;9.07;;;4.18;;
62633;SDS011;48704;50.534;6.442;2022-12-18T09:54:06;8.25;;;4.18;;
62633;SDS011;48704;50.534;6.442;2022-12-18T09:56:40;6.50;;;3.35;;
62633;SDS011;48704;50.534;6.442;2022-12-18T09:59:08;8.70;;;3.95;;
62633;SDS011;48704;50.534;6.442;2022-12-18T10:01:47;8.60;;;3.92;;
62633;SDS011;48704;50.534;6.442;2022-12-18T10:04:13;10.32;;;4.72;;
62633;SDS011;48704;50.534;6.442;2022-12-18T10:12:00;9.23;;;3.72;;
62633;SDS011;48704;50.534;6.442;2022-12-18T10:19:55;10.77;;;3.35;;
62633;SDS011;48704;50.534;6.442;2022-12-18T10:25:34;5.32;;;2.70;;
62633;SDS011;48704;50.534;6.442;2022-12-18T10:28:12;9.57;;;3.47;;
62633;SDS011;48704;50.534;6.442;2022-12-18T10:30:42;6.75;;;3.58;;
62633;SDS011;48704;50.534;6.442;2022-12-18T10:33:18;9.20;;;3.70;;
62633;SDS011;48704;50.534;6.442;2022-12-18T10:35:45;7.30;;;3.28;;
62633;SDS011;48704;50.534;6.442;2022-12-18T10:43:31;10.00;;;4.00;;
62633;SDS011;48704;50.534;6.442;2022-12-18T10:51:18;9.05;;;4.10;;
62633;SDS011;48704;50.534;6.442;2022-12-18T10:53:47;9.63;;;4.07;;
62633;SDS011;48704;50.534;6.442;2022-12-18T10:56:19;9.77;;;4.22;;
62633;SDS011;48704;50.534;6.442;2022-12-18T10:58:46;8.82;;;3.85;;
62633;SDS011;48704;50.534;6.442;2022-12-18T11:01:22;10.02;;;4.00;;
62633;SDS011;48704;50.534;6.442;2022-12-18T11:06:16;11.55;;;4.55;;
62633;SDS011;48704;50.534;6.442;2022-12-18T11:08:46;8.55;;;4.15;;
62633;SDS011;48704;50.534;6.442;2022-12-18T11:11:25;8.75;;;4.00;;
62633;SDS011;48704;50.534;6.442;2022-12-18T11:13:55;7.28;;;4.05;;
62633;SDS011;48704;50.534;6.442;2022-12-18T11:16:26;10.30;;;3.95;;
62633;SDS011;48704;50.534;6.442;2022-12-18T11:18:52;8.35;;;3.58;;
62633;SDS011;48704;50.534;6.442;2022-12-18T11:21:18;8.65;;;4.05;;
62633;SDS011;48704;50.534;6.442;2022-12-18T11:23:48;8.55;;;4.22;;
62633;SDS011;48704;50.534;6.442;2022-12-18T11:26:16;10.75;;;4.20;;
62633;SDS011;48704;50.534;6.442;2022-12-18T11:28:43;11.13;;;4.38;;
62633;SDS011;48704;50.534;6.442;2022-12-18T11:31:16;8.25;;;4.25;;
62633;SDS011;48704;50.534;6.442;2022-12-18T11:34:00;10.80;;;4.00;;
62633;SDS011;48704;50.534;6.442;2022-12-18T11:36:40;10.38;;;4.20;;
62633;SDS011;48704;50.534;6.442;2022-12-18T11:39:15;8.30;;;3.92;;
62633;SDS011;48704;50.534;6.442;2022-12-18T11:47:28;8.48;;;3.70;;
62633;SDS011;48704;50.534;6.442;2022-12-18T11:50:15;9.68;;;3.67;;
62633;SDS011;48704;50.534;6.442;2022-12-18T11:52:42;9.48;;;3.83;;
62633;SDS011;48704;50.534;6.442;2022-12-18T11:55:12;6.50;;;3.45;;
62633;SDS011;48704;50.534;6.442;2022-12-18T11:57:55;8.35;;;3.83;;
62633;SDS011;48704;50.534;6.442;2022-12-18T12:00:28;8.73;;;3.58;;
62633;SDS011;48704;50.534;6.442;2022-12-18T12:30:28;4.53;;;2.38;;
62633;SDS011;48704;50.534;6.442;2022-12-18T12:33:48;9.00;;;3.75;;
62633;SDS011;48704;50.534;6.442;2022-12-18T12:38:35;5.45;;;2.53;;
62633;SDS011;48704;50.534;6.442;2022-12-18T12:41:09;9.40;;;3.55;;
62633;SDS011;48704;50.534;6.442;2022-12-18T12:43:59;6.47;;;3.33;;
62633;SDS011;48704;50.534;6.442;2022-12-18T12:46:29;7.97;;;3.30;;
62633;SDS011;48704;50.534;6.442;2022-12-18T12:49:00;10.82;;;4.20;;
62633;SDS011;48704;50.534;6.442;2022-12-18T12:53:56;10.25;;;3.05;;
62633;SDS011;48704;50.534;6.442;2022-12-18T12:56:24;9.35;;;3.70;;
62633;SDS011;48704;50.534;6.442;2022-12-18T12:59:22;5.95;;;2.83;;
62633;SDS011;48704;50.534;6.442;2022-12-18T13:02:14;8.50;;;3.80;;
62633;SDS011;48704;50.534;6.442;2022-12-18T13:04:57;6.93;;;3.50;;
62633;SDS011;48704;50.534;6.442;2022-12-18T13:12:55;5.72;;;2.60;;
62633;SDS011;48704;50.534;6.442;2022-12-18T13:15:38;11.35;;;4.25;;
62633;SDS011;48704;50.534;6.442;2022-12-18T13:20:35;7.45;;;3.03;;
62633;SDS011;48704;50.534;6.442;2022-12-18T13:25:55;6.75;;;2.70;;
62633;SDS011;48704;50.534;6.442;2022-12-18T13:34:18;7.70;;;3.55;;
62633;SDS011;48704;50.534;6.442;2022-12-18T13:36:45;5.85;;;3.90;;
62633;SDS011;48704;50.534;6.442;2022-12-18T13:41:36;6.35;;;3.78;;
62633;SDS011;48704;50.534;6.442;2022-12-18T13:46:52;5.80;;;2.83;;
62633;SDS011;48704;50.534;6.442;2022-12-18T13:49:23;8.98;;;3.38;;
62633;SDS011;48704;50.534;6.442;2022-12-18T13:51:53;6.25;;;3.33;;
62633;SDS011;48704;50.534;6.442;2022-12-18T13:56:50;9.48;;;3.95;;
62633;SDS011;48704;50.534;6.442;2022-12-18T13:59:17;5.70;;;2.80;;
62633;SDS011;48704;50.534;6.442;2022-12-18T14:01:50;10.88;;;4.50;;
62633;SDS011;48704;50.534;6.442;2022-12-18T14:04:22;9.00;;;4.35;;
62633;SDS011;48704;50.534;6.442;2022-12-18T14:06:49;6.97;;;3.55;;
62633;SDS011;48704;50.534;6.442;2022-12-18T14:09:18;9.68;;;4.43;;
62633;SDS011;48704;50.534;6.442;2022-12-18T14:11:49;8.32;;;3.88;;
62633;SDS011;48704;50.534;6.442;2022-12-18T14:14:16;12.70;;;5.30;;
62633;SDS011;48704;50.534;6.442;2022-12-18T14:16:43;10.65;;;4.15;;
62633;SDS011;48704;50.534;6.442;2022-12-18T14:19:16;8.82;;;3.78;;
62633;SDS011;48704;50.534;6.442;2022-12-18T14:21:47;9.13;;;4.43;;
62633;SDS011;48704;50.534;6.442;2022-12-18T14:24:19;11.25;;;3.42;;
62633;SDS011;48704;50.534;6.442;2022-12-18T14:26:49;8.50;;;4.28;;
62633;SDS011;48704;50.534;6.442;2022-12-18T14:32:10;8.77;;;5.03;;
62633;SDS011;48704;50.534;6.442;2022-12-18T14:34:39;13.68;;;4.70;;
62633;SDS011;48704;50.534;6.442;2022-12-18T14:37:04;11.98;;;5.45;;
62633;SDS011;48704;50.534;6.442;2022-12-18T14:39:31;11.75;;;5.00;;
62633;SDS011;48704;50.534;6.442;2022-12-18T14:41:57;11.68;;;4.90;;
62633;SDS011;48704;50.534;6.442;2022-12-18T14:44:23;8.15;;;5.47;;
62633;SDS011;48704;50.534;6.442;2022-12-18T14:46:49;11.70;;;5.68;;
62633;SDS011;48704;50.534;6.442;2022-12-18T14:51:47;10.65;;;4.70;;
62633;SDS011;48704;50.534;6.442;2022-12-18T14:54:15;10.85;;;4.30;;
62633;SDS011;48704;50.534;6.442;2022-12-18T14:56:44;12.52;;;5.40;;
62633;SDS011;48704;50.534;6.442;2022-12-18T14:59:19;12.23;;;5.00;;
62633;SDS011;48704;50.534;6.442;2022-12-18T15:04:34;10.45;;;4.45;;
62633;SDS011;48704;50.534;6.442;2022-12-18T15:09:36;14.15;;;5.32;;
62633;SDS011;48704;50.534;6.442;2022-12-18T15:12:02;11.60;;;5.50;;
62633;SDS011;48704;50.534;6.442;2022-12-18T15:14:40;14.40;;;5.47;;
62633;SDS011;48704;50.534;6.442;2022-12-18T15:17:14;10.35;;;5.35;;
62633;SDS011;48704;50.534;6.442;2022-12-18T15:19:44;12.65;;;5.00;;
62633;SDS011;48704;50.534;6.442;2022-12-18T15:22:24;12.30;;;5.85;;
62633;SDS011;48704;50.534;6.442;2022-12-18T15:24:52;13.57;;;6.20;;
62633;SDS011;48704;50.534;6.442;2022-12-18T15:27:20;11.63;;;5.78;;
62633;SDS011;48704;50.534;6.442;2022-12-18T15:32:49;9.15;;;4.28;;
62633;SDS011;48704;50.534;6.442;2022-12-18T15:35:20;6.53;;;3.30;;
62633;SDS011;48704;50.534;6.442;2022-12-18T15:37:48;17.83;;;6.63;;
62633;SDS011;48704;50.534;6.442;2022-12-18T15:40:15;18.67;;;7.43;;
62633;SDS011;48704;50.534;6.442;2022-12-18T15:42:44;13.43;;;6.32;;
62633;SDS011;48704;50.534;6.442;2022-12-18T15:45:29;11.90;;;5.30;;
62633;SDS011;48704;50.534;6.442;2022-12-18T15:47:55;17.85;;;8.38;;
62633;SDS011;48704;50.534;6.442;2022-12-18T15:50:20;19.92;;;7.15;;
62633;SDS011;48704;50.534;6.442;2022-12-18T15:52:46;19.83;;;7.07;;
62633;SDS011;48704;50.534;6.442;2022-12-18T15:55:15;15.45;;;6.57;;
62633;SDS011;48704;50.534;6.442;2022-12-18T15:58:01;15.68;;;7.20;;
62633;SDS011;48704;50.534;6.442;2022-12-18T16:00:27;16.67;;;6.90;;
62633;SDS011;48704;50.534;6.442;2022-12-18T16:02:52;17.77;;;7.63;;
62633;SDS011;48704;50.534;6.442;2022-12-18T16:05:18;15.57;;;6.25;;
62633;SDS011;48704;50.534;6.442;2022-12-18T16:07:49;15.85;;;7.43;;
62633;SDS011;48704;50.534;6.442;2022-12-18T16:10:14;15.65;;;6.93;;
62633;SDS011;48704;50.534;6.442;2022-12-18T16:12:40;15.75;;;6.82;;
62633;SDS011;48704;50.534;6.442;2022-12-18T16:15:07;16.98;;;6.80;;
62633;SDS011;48704;50.534;6.442;2022-12-18T16:17:33;19.05;;;7.85;;
62633;SDS011;48704;50.534;6.442;2022-12-18T16:19:58;17.58;;;8.43;;
62633;SDS011;48704;50.534;6.442;2022-12-18T16:22:24;17.38;;;7.22;;
62633;SDS011;48704;50.534;6.442;2022-12-18T16:24:52;18.08;;;7.45;;
62633;SDS011;48704;50.534;6.442;2022-12-18T16:27:18;22.17;;;9.35;;
62633;SDS011;48704;50.534;6.442;2022-12-18T16:29:45;18.65;;;6.05;;
62633;SDS011;48704;50.534;6.442;2022-12-18T16:32:15;15.95;;;6.78;;
62633;SDS011;48704;50.534;6.442;2022-12-18T16:34:41;19.50;;;7.43;;
62633;SDS011;48704;50.534;6.442;2022-12-18T16:37:08;16.58;;;8.05;;
62633;SDS011;48704;50.534;6.442;2022-12-18T16:39:35;18.65;;;8.55;;
62633;SDS011;48704;50.534;6.442;2022-12-18T16:42:02;17.58;;;7.22;;
62633;SDS011;48704;50.534;6.442;2022-12-18T16:44:30;19.88;;;8.10;;
62633;SDS011;48704;50.534;6.442;2022-12-18T16:46:55;21.13;;;8.07;;
62633;SDS011;48704;50.534;6.442;2022-12-18T16:49:26;20.80;;;8.13;;
62633;SDS011;48704;50.534;6.442;2022-12-18T16:51:52;21.52;;;8.55;;
62633;SDS011;48704;50.534;6.442;2022-12-18T16:54:17;23.48;;;8.82;;
62633;SDS011;48704;50.534;6.442;2022-12-18T16:56:42;24.02;;;9.20;;
62633;SDS011;48704;50.534;6.442;2022-12-18T16:59:09;18.98;;;8.80;;
62633;SDS011;48704;50.534;6.442;2022-12-18T17:01:35;22.98;;;9.70;;
62633;SDS011;48704;50.534;6.442;2022-12-18T17:04:03;18.80;;;8.18;;